createdAt,value
2018-08-12T00:00:28.917Z,15.20
2018-08-12T00:02:58.907Z,15.20
2018-08-12T00:05:27.863Z,15.20
2018-08-12T00:07:56.833Z,15.10
2018-08-12T00:10:26.087Z,15.10
2018-08-12T00:12:55.153Z,15.10
2018-08-12T00:15:24.110Z,15.00
2018-08-12T00:17:53.173Z,14.90
2018-08-12T00:20:23.281Z,14.90
2018-08-12T00:22:52.282Z,14.80
2018-08-12T00:25:22.714Z,14.80
2018-08-12T00:27:51.694Z,14.80
2018-08-12T00:30:20.992Z,14.80
2018-08-12T00:32:49.947Z,14.80
2018-08-12T00:35:19.502Z,14.70
2018-08-12T00:37:48.480Z,14.70
2018-08-12T00:40:17.983Z,14.70
2018-08-12T00:42:47.182Z,14.70
2018-08-12T00:45:17.529Z,14.70
2018-08-12T00:47:46.918Z,14.70
2018-08-12T00:50:16.668Z,14.60
2018-08-12T00:52:45.671Z,14.60
2018-08-12T00:55:16.003Z,14.60
2018-08-12T00:57:45.868Z,14.60
2018-08-12T01:00:16.895Z,14.60
2018-08-12T01:02:45.871Z,14.60
2018-08-12T01:05:16.107Z,14.60
2018-08-12T01:07:45.597Z,14.60
2018-08-12T01:10:14.918Z,14.60
2018-08-12T01:12:44.166Z,14.60
2018-08-12T01:15:16.440Z,14.50
2018-08-12T01:17:45.575Z,14.50
2018-08-12T01:20:23.335Z,14.60
2018-08-12T01:22:52.342Z,14.50
2018-08-12T01:25:21.623Z,14.50
2018-08-12T01:27:50.574Z,14.40
2018-08-12T01:30:20.820Z,14.40
2018-08-12T01:32:50.015Z,14.40
2018-08-12T01:35:19.292Z,14.40
2018-08-12T01:37:48.807Z,14.40
2018-08-12T01:40:18.603Z,14.40
2018-08-12T01:42:47.708Z,14.40
2018-08-12T01:45:18.447Z,14.30
2018-08-12T01:47:47.419Z,14.40
2018-08-12T01:50:17.563Z,14.40
2018-08-12T01:52:46.527Z,14.30
2018-08-12T01:55:15.851Z,14.40
2018-08-12T01:57:44.891Z,14.40
2018-08-12T02:00:16.712Z,14.40
2018-08-12T02:02:46.095Z,14.40
2018-08-12T02:05:15.319Z,14.40
2018-08-12T02:07:44.537Z,14.40
2018-08-12T02:10:13.563Z,14.40
2018-08-12T02:12:42.634Z,14.40
2018-08-12T02:15:12.180Z,14.40
2018-08-12T02:17:41.611Z,14.40
2018-08-12T02:20:11.399Z,14.40
2018-08-12T02:22:41.021Z,14.40
2018-08-12T02:25:10.714Z,14.40
2018-08-12T02:27:39.722Z,14.40
2018-08-12T02:30:10.461Z,14.40
2018-08-12T02:32:39.748Z,14.30
2018-08-12T02:35:14.704Z,14.30
2018-08-12T02:37:44.144Z,14.30
2018-08-12T02:40:13.108Z,14.30
2018-08-12T02:42:42.084Z,14.30
2018-08-12T02:45:14.135Z,14.30
2018-08-12T02:47:43.239Z,14.30
2018-08-12T02:50:12.235Z,14.30
2018-08-12T02:52:41.196Z,14.30
2018-08-12T02:55:11.172Z,14.30
2018-08-12T02:57:40.123Z,14.30
2018-08-12T03:00:10.687Z,14.30
2018-08-12T03:02:39.625Z,14.30
2018-08-12T03:05:08.591Z,14.20
2018-08-12T03:07:37.539Z,14.20
2018-08-12T03:10:06.948Z,14.20
2018-08-12T03:12:35.904Z,14.10
2018-08-12T03:15:06.504Z,14.10
2018-08-12T03:17:35.506Z,14.10
2018-08-12T03:20:05.864Z,14.10
2018-08-12T03:22:35.279Z,14.00
2018-08-12T03:25:05.454Z,14.00
2018-08-12T03:27:34.399Z,14.00
2018-08-12T03:30:03.388Z,13.90
2018-08-12T03:32:32.282Z,13.90
2018-08-12T03:35:01.235Z,13.80
2018-08-12T03:37:30.174Z,13.80
2018-08-12T03:39:59.211Z,13.80
2018-08-12T03:42:28.257Z,13.80
2018-08-12T03:44:57.263Z,13.80
2018-08-12T03:47:26.226Z,13.70
2018-08-12T03:49:55.211Z,13.70
2018-08-12T03:52:24.175Z,13.70
2018-08-12T03:54:53.121Z,13.70
2018-08-12T03:57:22.079Z,13.70
2018-08-12T03:59:51.203Z,13.60
2018-08-12T04:02:20.233Z,13.60
2018-08-12T04:04:49.292Z,13.60
2018-08-12T04:07:18.250Z,13.60
2018-08-12T04:09:47.242Z,13.60
2018-08-12T04:12:16.195Z,13.60
2018-08-12T04:14:45.191Z,13.60
2018-08-12T04:17:14.144Z,13.60
2018-08-12T04:19:43.111Z,13.70
2018-08-12T04:22:12.091Z,13.70
2018-08-12T04:24:41.084Z,13.70
2018-08-12T04:27:10.068Z,13.70
2018-08-12T04:29:39.175Z,13.70
2018-08-12T04:32:08.138Z,13.70
2018-08-12T04:34:37.117Z,13.80
2018-08-12T04:37:06.124Z,13.70
2018-08-12T04:39:35.104Z,13.80
2018-08-12T04:42:04.092Z,13.80
2018-08-12T04:44:33.051Z,13.80
2018-08-12T04:47:02.051Z,13.90
2018-08-12T04:49:31.045Z,13.90
2018-08-12T04:51:59.991Z,14.00
2018-08-12T04:54:28.951Z,14.00
2018-08-12T04:56:57.924Z,14.10
2018-08-12T04:59:26.929Z,14.20
2018-08-12T05:01:55.922Z,14.20
2018-08-12T05:04:24.899Z,14.30
2018-08-12T05:06:53.855Z,14.40
2018-08-12T05:09:22.823Z,14.40
2018-08-12T05:11:51.840Z,14.50
2018-08-12T05:14:20.786Z,14.60
2018-08-12T05:16:49.739Z,14.60
2018-08-12T05:19:18.723Z,14.60
2018-08-12T05:21:47.702Z,14.70
2018-08-12T05:24:16.701Z,14.70
2018-08-12T05:26:45.768Z,14.80
2018-08-12T05:29:14.735Z,14.90
2018-08-12T05:31:43.688Z,15.00
2018-08-12T05:34:12.728Z,15.00
2018-08-12T05:36:41.764Z,15.20
2018-08-12T05:39:12.776Z,15.30
2018-08-12T05:41:42.198Z,15.40
2018-08-12T05:44:11.204Z,15.50
2018-08-12T05:46:40.227Z,15.60
2018-08-12T05:49:09.268Z,15.80
2018-08-12T05:51:38.209Z,15.90
2018-08-12T05:54:07.158Z,16.00
2018-08-12T05:56:36.363Z,16.10
2018-08-12T05:59:05.656Z,16.20
2018-08-12T06:01:34.614Z,16.40
2018-08-12T06:04:03.582Z,16.50
2018-08-12T06:06:32.582Z,16.60
2018-08-12T06:09:01.768Z,16.80
2018-08-12T06:11:30.778Z,17.00
2018-08-12T06:13:59.714Z,17.10
2018-08-12T06:16:28.664Z,17.20
2018-08-12T06:18:57.634Z,17.30
2018-08-12T06:21:26.588Z,17.50
2018-08-12T06:23:55.530Z,17.60
2018-08-12T06:26:24.499Z,17.60
2018-08-12T06:28:53.465Z,17.70
2018-08-12T06:31:22.460Z,17.80
2018-08-12T06:33:51.411Z,17.90
2018-08-12T06:36:20.376Z,18.00
2018-08-12T06:38:49.332Z,18.10
2018-08-12T06:41:18.323Z,18.10
2018-08-12T06:43:47.287Z,18.20
2018-08-12T06:46:16.246Z,18.20
2018-08-12T06:48:45.236Z,18.30
2018-08-12T06:51:14.183Z,18.30
2018-08-12T06:53:43.163Z,18.50
2018-08-12T06:56:12.179Z,18.50
2018-08-12T06:58:41.142Z,18.60
2018-08-12T07:01:10.110Z,18.60
2018-08-12T07:03:39.076Z,18.70
2018-08-12T07:06:08.083Z,18.80
2018-08-12T07:08:37.019Z,18.80
2018-08-12T07:11:05.979Z,18.90
2018-08-12T07:13:34.951Z,18.80
2018-08-12T07:16:03.956Z,18.90
2018-08-12T07:18:32.881Z,18.90
2018-08-12T07:21:01.891Z,18.90
2018-08-12T07:23:30.974Z,18.90
2018-08-12T07:25:59.923Z,18.90
2018-08-12T07:28:28.931Z,19.00
2018-08-12T07:30:57.901Z,19.10
2018-08-12T07:33:26.845Z,19.20
2018-08-12T07:35:55.803Z,19.20
2018-08-12T07:38:24.742Z,19.30
2018-08-12T07:40:53.720Z,19.50
2018-08-12T07:43:22.667Z,19.70
2018-08-12T07:45:51.657Z,19.80
2018-08-12T07:48:20.621Z,20.00
2018-08-12T07:50:49.575Z,20.30
2018-08-12T07:53:18.515Z,20.50
2018-08-12T07:55:47.614Z,20.60
2018-08-12T07:58:16.523Z,20.80
2018-08-12T08:00:45.567Z,21.00
2018-08-12T08:05:43.094Z,21.20
2018-08-12T08:08:12.043Z,21.20
2018-08-12T08:10:41.019Z,21.30
2018-08-12T08:13:09.990Z,21.40
2018-08-12T08:15:39.105Z,21.40
2018-08-12T08:18:08.123Z,21.40
2018-08-12T08:20:37.115Z,21.40
2018-08-12T08:23:06.163Z,21.50
2018-08-12T08:25:35.185Z,21.50
2018-08-12T08:28:04.167Z,21.40
2018-08-12T08:30:33.139Z,21.40
2018-08-12T08:33:02.104Z,21.30
2018-08-12T08:35:31.228Z,21.30
2018-08-12T08:38:00.284Z,21.30
2018-08-12T08:40:29.363Z,21.30
2018-08-12T08:42:58.310Z,21.40
2018-08-12T08:45:27.284Z,21.50
2018-08-12T08:47:56.286Z,21.70
2018-08-12T08:50:25.251Z,21.70
2018-08-12T08:52:54.310Z,21.80
2018-08-12T08:55:23.296Z,21.80
2018-08-12T08:57:52.267Z,22.00
2018-08-12T09:00:21.830Z,22.10
2018-08-12T09:02:52.251Z,22.30
2018-08-12T09:05:21.558Z,22.50
2018-08-12T09:07:51.053Z,22.60
2018-08-12T09:10:20.432Z,22.70
2018-08-12T09:12:49.426Z,22.80
2018-08-12T09:15:19.458Z,22.90
2018-08-12T09:17:48.831Z,23.10
2018-08-12T09:20:20.067Z,23.30
2018-08-12T09:22:49.060Z,23.60
2018-08-12T09:25:18.193Z,23.60
2018-08-12T09:27:47.210Z,23.70
2018-08-12T09:30:17.704Z,23.60
2018-08-12T09:32:47.199Z,23.60
2018-08-12T09:35:16.191Z,23.70
2018-08-12T09:37:46.211Z,23.70
2018-08-12T09:40:17.491Z,23.60
2018-08-12T09:42:47.327Z,23.50
2018-08-12T09:45:18.240Z,23.50
2018-08-12T09:47:47.256Z,23.40
2018-08-12T09:50:17.531Z,23.50
2018-08-12T09:52:47.251Z,23.40
2018-08-12T09:55:16.865Z,23.50
2018-08-12T09:57:45.983Z,23.60
2018-08-12T10:00:21.532Z,23.60
2018-08-12T10:02:51.936Z,23.70
2018-08-12T10:05:20.975Z,23.60
2018-08-12T10:07:49.989Z,23.60
2018-08-12T10:10:19.162Z,23.60
2018-08-12T10:12:48.324Z,23.40
2018-08-12T10:15:17.607Z,23.40
2018-08-12T10:17:50.603Z,23.40
2018-08-12T10:20:19.672Z,23.50
2018-08-12T10:22:48.741Z,23.60
2018-08-12T10:25:17.691Z,23.70
2018-08-12T10:27:47.006Z,23.80
2018-08-12T10:30:16.206Z,23.90
2018-08-12T10:32:45.395Z,24.00
2018-08-12T10:35:15.490Z,23.90
2018-08-12T10:37:44.699Z,24.00
2018-08-12T10:40:16.436Z,24.00
2018-08-12T10:42:46.266Z,24.00
2018-08-12T10:45:15.356Z,24.10
2018-08-12T10:47:44.576Z,24.10
2018-08-12T10:50:16.830Z,24.10
2018-08-12T10:52:46.748Z,24.20
2018-08-12T10:55:17.385Z,24.20
2018-08-12T10:57:46.888Z,24.20
2018-08-12T11:00:19.126Z,24.20
2018-08-12T11:02:48.359Z,24.30
2018-08-12T11:05:17.828Z,24.30
2018-08-12T11:07:50.707Z,24.30
2018-08-12T11:10:19.703Z,24.30
2018-08-12T11:12:48.741Z,24.30
2018-08-12T11:15:17.804Z,24.50
2018-08-12T11:17:46.994Z,24.50
2018-08-12T11:20:15.950Z,24.60
2018-08-12T11:22:44.903Z,24.60
2018-08-12T11:25:13.940Z,24.50
2018-08-12T11:27:42.986Z,24.50
2018-08-12T11:30:15.635Z,24.30
2018-08-12T11:32:44.699Z,24.30
2018-08-12T11:35:15.423Z,24.30
2018-08-12T11:37:44.889Z,24.40
2018-08-12T11:40:14.675Z,24.50
2018-08-12T11:42:43.791Z,24.60
2018-08-12T11:45:15.186Z,24.70
2018-08-12T11:47:44.848Z,24.80
2018-08-12T11:50:14.478Z,24.70
2018-08-12T11:52:44.232Z,24.80
2018-08-12T11:55:15.103Z,24.80
2018-08-12T11:57:44.043Z,24.80
2018-08-12T12:00:15.737Z,24.90
2018-08-12T12:02:46.300Z,25.10
2018-08-12T12:05:15.440Z,25.20
2018-08-12T12:07:44.827Z,25.30
2018-08-12T12:10:16.473Z,25.40
2018-08-12T12:12:46.975Z,25.40
2018-08-12T12:15:16.464Z,25.40
2018-08-12T12:17:45.687Z,25.40
2018-08-12T12:20:16.323Z,25.50
2018-08-12T12:22:46.058Z,25.80
2018-08-12T12:25:17.514Z,26.00
2018-08-12T12:27:46.705Z,26.20
2018-08-12T12:30:18.188Z,26.30
2018-08-12T12:32:47.999Z,26.40
2018-08-12T12:35:16.967Z,26.40
2018-08-12T12:37:46.026Z,26.40
2018-08-12T12:40:16.132Z,26.40
2018-08-12T12:42:45.705Z,26.30
2018-08-12T12:45:15.139Z,26.20
2018-08-12T12:47:44.426Z,26.10
2018-08-12T12:50:18.162Z,25.90
2018-08-12T12:52:48.018Z,26.00
2018-08-12T12:55:17.596Z,26.20
2018-08-12T12:57:46.768Z,26.40
2018-08-12T13:00:17.240Z,26.60
2018-08-12T13:02:46.544Z,26.70
2018-08-12T13:05:16.845Z,26.70
2018-08-12T13:07:46.902Z,26.70
2018-08-12T13:10:16.737Z,26.90
2018-08-12T13:12:45.770Z,26.80
2018-08-12T13:15:15.815Z,26.70
2018-08-12T13:17:44.998Z,26.90
2018-08-12T13:20:16.574Z,27.20
2018-08-12T13:22:46.753Z,27.40
2018-08-12T13:25:17.402Z,27.60
2018-08-12T13:27:46.461Z,27.80
2018-08-12T13:30:16.665Z,27.80
2018-08-12T13:32:46.527Z,27.70
2018-08-12T13:35:15.808Z,27.70
2018-08-12T13:37:44.839Z,27.40
2018-08-12T13:40:15.215Z,27.40
2018-08-12T13:42:45.176Z,27.50
2018-08-12T13:45:14.612Z,27.50
2018-08-12T13:47:44.690Z,27.40
2018-08-12T13:50:17.999Z,27.20
2018-08-12T13:52:47.361Z,27.30
2018-08-12T13:55:16.646Z,27.40
2018-08-12T13:57:46.155Z,27.50
2018-08-12T14:00:18.059Z,27.40
2018-08-12T14:02:47.035Z,27.50
2018-08-12T14:05:17.211Z,27.50
2018-08-12T14:07:46.959Z,27.40
2018-08-12T14:10:16.188Z,27.20
2018-08-12T14:12:45.428Z,27.20
2018-08-12T14:15:16.379Z,27.20
2018-08-12T14:17:46.747Z,27.20
2018-08-12T14:20:17.825Z,27.20
2018-08-12T14:22:47.212Z,27.20
2018-08-12T14:25:16.358Z,27.10
2018-08-12T14:27:45.911Z,27.00
2018-08-12T14:30:18.006Z,26.90
2018-08-12T14:32:47.725Z,27.00
2018-08-12T14:35:16.875Z,26.90
2018-08-12T14:37:46.503Z,27.00
2018-08-12T14:40:16.204Z,27.10
2018-08-12T14:42:45.541Z,27.20
2018-08-12T14:45:15.256Z,27.30
2018-08-12T14:47:44.860Z,27.10
2018-08-12T14:50:18.675Z,27.00
2018-08-12T14:52:47.676Z,26.80
2018-08-12T14:55:19.124Z,26.80
2018-08-12T14:57:48.474Z,27.00
2018-08-12T15:00:19.222Z,27.10
2018-08-12T15:02:49.591Z,27.20
2018-08-12T15:05:19.321Z,27.30
2018-08-12T15:07:48.530Z,27.40
2018-08-12T15:10:17.523Z,27.40
2018-08-12T15:12:46.607Z,27.40
2018-08-12T15:15:16.627Z,27.60
2018-08-12T15:17:46.328Z,27.80
2018-08-12T15:20:16.243Z,28.00
2018-08-12T15:22:45.297Z,28.20
2018-08-12T15:25:16.999Z,28.40
2018-08-12T15:27:46.258Z,28.60
2018-08-12T15:30:15.541Z,28.90
2018-08-12T15:32:44.652Z,29.10
2018-08-12T15:35:13.704Z,29.00
2018-08-12T15:37:42.682Z,29.10
2018-08-12T15:40:13.164Z,29.40
2018-08-12T15:42:43.806Z,29.90
2018-08-12T15:45:14.825Z,30.50
2018-08-12T15:47:44.345Z,30.50
2018-08-12T15:50:13.634Z,30.80
2018-08-12T15:52:44.136Z,31.20
2018-08-12T15:55:13.375Z,31.60
2018-08-12T15:57:42.379Z,32.20
2018-08-12T16:00:14.533Z,32.50
2018-08-12T16:02:44.095Z,32.80
2018-08-12T16:05:13.259Z,32.90
2018-08-12T16:07:42.786Z,33.50
2018-08-12T16:10:14.067Z,33.60
2018-08-12T16:12:43.290Z,34.50
2018-08-12T16:15:12.868Z,35.10
2018-08-12T16:17:42.218Z,35.40
2018-08-12T16:20:12.015Z,35.30
2018-08-12T16:22:41.207Z,35.40
2018-08-12T16:25:12.808Z,35.40
2018-08-12T16:27:42.380Z,35.80
2018-08-12T16:30:12.695Z,36.10
2018-08-12T16:32:41.643Z,36.20
2018-08-12T16:35:12.358Z,36.00
2018-08-12T16:37:42.016Z,35.80
2018-08-12T16:40:12.804Z,36.00
2018-08-12T16:42:41.758Z,35.90
2018-08-12T16:45:11.651Z,35.90
2018-08-12T16:47:40.670Z,35.80
2018-08-12T16:50:10.666Z,35.30
2018-08-12T16:52:40.011Z,35.10
2018-08-12T16:55:11.033Z,35.10
2018-08-12T16:57:40.025Z,35.10
2018-08-12T17:00:12.059Z,35.10
2018-08-12T17:02:41.175Z,35.00
2018-08-12T17:05:12.227Z,35.00
2018-08-12T17:07:41.703Z,34.80
2018-08-12T17:10:11.607Z,34.50
2018-08-12T17:12:40.764Z,34.50
2018-08-12T17:15:11.482Z,34.50
2018-08-12T17:17:40.511Z,34.60
2018-08-12T17:20:12.085Z,34.60
2018-08-12T17:22:41.736Z,34.20
2018-08-12T17:25:10.703Z,34.20
2018-08-12T17:27:39.674Z,33.80
2018-08-12T17:30:10.847Z,33.20
2018-08-12T17:32:39.822Z,32.90
2018-08-12T17:35:09.700Z,32.50
2018-08-12T17:37:39.430Z,31.90
2018-08-12T17:40:10.745Z,31.80
2018-08-12T17:42:39.713Z,31.60
2018-08-12T17:45:10.274Z,31.20
2018-08-12T17:47:39.545Z,30.90
2018-08-12T17:50:10.047Z,30.60
2018-08-12T17:52:39.082Z,30.30
2018-08-12T17:55:08.254Z,30.10
2018-08-12T17:57:37.254Z,29.80
2018-08-12T18:00:08.435Z,29.50
2018-08-12T18:02:37.604Z,29.20
2018-08-12T18:05:06.891Z,28.90
2018-08-12T18:07:35.900Z,28.60
2018-08-12T18:10:05.245Z,28.30
2018-08-12T18:12:34.183Z,28.00
2018-08-12T18:15:03.243Z,27.70
2018-08-12T18:17:32.142Z,27.40
2018-08-12T18:20:01.112Z,27.20
2018-08-12T18:22:30.055Z,26.90
2018-08-12T18:24:59.502Z,26.70
2018-08-12T18:27:28.455Z,26.50
2018-08-12T18:29:57.423Z,26.30
2018-08-12T18:32:26.466Z,26.10
2018-08-12T18:34:55.443Z,25.90
2018-08-12T18:37:24.549Z,25.70
2018-08-12T18:39:53.526Z,25.60
2018-08-12T18:42:22.527Z,25.50
2018-08-12T18:44:51.519Z,25.30
2018-08-12T18:47:20.505Z,25.10
2018-08-12T18:49:49.542Z,25.00
2018-08-12T18:52:18.491Z,24.90
2018-08-12T18:54:47.455Z,24.70
2018-08-12T18:57:16.523Z,24.60
2018-08-12T18:59:45.499Z,24.50
2018-08-12T19:02:15.586Z,24.30
2018-08-12T19:04:44.568Z,24.30
2018-08-12T19:07:13.715Z,24.20
2018-08-12T19:09:42.759Z,24.10
2018-08-12T19:12:11.804Z,24.00
2018-08-12T19:14:40.857Z,23.90
2018-08-12T19:17:09.855Z,23.70
2018-08-12T19:19:38.892Z,23.70
2018-08-12T19:22:07.862Z,23.60
2018-08-12T19:24:36.909Z,23.50
2018-08-12T19:27:05.898Z,23.40
2018-08-12T19:29:34.855Z,23.30
2018-08-12T19:32:03.884Z,23.30
2018-08-12T19:34:32.946Z,23.20
2018-08-12T19:37:01.918Z,23.10
2018-08-12T19:39:31.139Z,23.10
2018-08-12T19:42:00.819Z,23.00
2018-08-12T19:44:29.851Z,23.00
2018-08-12T19:46:59.439Z,22.90
2018-08-12T19:49:28.456Z,22.90
2018-08-12T19:51:58.110Z,22.80
2018-08-12T19:54:27.106Z,22.70
2018-08-12T19:56:56.444Z,22.60
2018-08-12T19:59:26.242Z,22.50
2018-08-12T20:01:55.680Z,22.50
2018-08-12T20:04:24.635Z,22.40
2018-08-12T20:06:53.627Z,22.40
2018-08-12T20:09:22.638Z,22.30
2018-08-12T20:11:51.750Z,22.30
2018-08-12T20:14:20.764Z,22.20
2018-08-12T20:16:49.724Z,22.20
2018-08-12T20:19:18.760Z,22.20
2018-08-12T20:21:47.723Z,22.10
2018-08-12T20:26:45.330Z,22.00
2018-08-12T20:29:14.317Z,22.00
2018-08-12T20:31:43.274Z,21.90
2018-08-12T20:34:12.391Z,21.80
2018-08-12T20:36:41.286Z,21.70
2018-08-12T20:39:11.715Z,21.70
2018-08-12T20:41:41.123Z,21.50
2018-08-12T20:44:10.203Z,21.50
2018-08-12T20:46:39.187Z,21.50
2018-08-12T20:49:08.158Z,21.50
2018-08-12T20:51:37.167Z,21.40
2018-08-12T20:54:06.136Z,21.40
2018-08-12T20:56:35.204Z,21.30
2018-08-12T20:59:04.260Z,21.30
2018-08-12T21:01:33.994Z,21.30
2018-08-12T21:04:02.965Z,21.20
2018-08-12T21:06:32.867Z,21.20
2018-08-12T21:09:01.947Z,21.20
2018-08-12T21:11:30.971Z,21.10
2018-08-12T21:13:59.961Z,21.10
2018-08-12T21:16:28.999Z,21.10
2018-08-12T21:18:57.958Z,21.10
2018-08-12T21:21:26.860Z,21.00
2018-08-12T21:23:55.822Z,21.00
2018-08-12T21:26:24.833Z,21.00
2018-08-12T21:28:53.916Z,20.90
2018-08-12T21:31:23.016Z,20.90
2018-08-12T21:33:52.013Z,20.80
2018-08-12T21:36:20.956Z,20.80
2018-08-12T21:38:49.937Z,20.80
2018-08-12T21:41:18.934Z,20.80
2018-08-12T21:43:47.900Z,20.70
2018-08-12T21:46:16.839Z,20.70
2018-08-12T21:48:45.852Z,20.70
2018-08-12T21:51:14.833Z,20.70
2018-08-12T21:53:43.803Z,20.70
2018-08-12T21:56:12.777Z,20.70
2018-08-12T21:58:41.771Z,20.60
2018-08-12T22:01:10.781Z,20.60
2018-08-12T22:03:39.739Z,20.60
2018-08-12T22:06:08.772Z,20.60
2018-08-12T22:08:37.727Z,20.60
2018-08-12T22:11:06.726Z,20.60
2018-08-12T22:13:35.695Z,20.60
2018-08-12T22:16:04.680Z,20.60
2018-08-12T22:18:33.643Z,20.60
2018-08-12T22:21:02.647Z,20.60
2018-08-12T22:23:31.611Z,20.60
2018-08-12T22:26:00.563Z,20.60
2018-08-12T22:28:29.633Z,20.60
2018-08-12T22:30:58.612Z,20.60
2018-08-12T22:33:27.555Z,20.60
2018-08-12T22:35:56.620Z,20.60
2018-08-12T22:38:25.595Z,20.50
2018-08-12T22:40:54.621Z,20.50
2018-08-12T22:43:23.700Z,20.50
2018-08-12T22:45:52.666Z,20.40
2018-08-12T22:48:21.728Z,20.40
2018-08-12T22:50:50.734Z,20.30
2018-08-12T22:53:19.799Z,20.30
2018-08-12T22:55:48.759Z,20.20
2018-08-12T22:58:17.748Z,20.20
2018-08-12T23:00:46.745Z,20.10
2018-08-12T23:03:15.679Z,20.00
2018-08-12T23:05:44.654Z,20.00
2018-08-12T23:08:13.660Z,19.90
2018-08-12T23:10:42.660Z,19.80
2018-08-12T23:13:11.635Z,19.80
2018-08-12T23:16:19.555Z,19.70
2018-08-12T23:18:48.524Z,19.70
2018-08-12T23:21:18.335Z,19.60
2018-08-12T23:23:48.566Z,19.50
2018-08-12T23:26:18.786Z,19.40
2018-08-12T23:28:47.863Z,19.40
2018-08-12T23:31:16.931Z,19.30
2018-08-12T23:33:45.973Z,19.20
2018-08-12T23:36:15.014Z,19.20
2018-08-12T23:38:44.020Z,19.10
2018-08-12T23:41:13.460Z,19.10
2018-08-12T23:43:42.422Z,19.10
2018-08-12T23:46:11.771Z,19.00
2018-08-12T23:48:40.912Z,18.90
2018-08-12T23:51:09.868Z,18.90
2018-08-12T23:53:38.794Z,18.80
2018-08-12T23:56:07.778Z,18.80
2018-08-12T23:58:36.713Z,18.80
